createdAt,value
2023-04-18T00:00:58.000Z,10.3
2023-04-18T00:02:04.000Z,10.6
2023-04-18T00:04:17.000Z,10.3
2023-04-18T00:05:23.000Z,10.9
2023-04-18T00:06:29.000Z,10.3
2023-04-18T00:07:35.000Z,10.6
2023-04-18T00:08:40.000Z,9.9
2023-04-18T00:09:46.000Z,10.6
2023-04-18T00:11:58.000Z,10.6
2023-04-18T00:13:03.000Z,11.2
2023-04-18T00:14:09.000Z,11.6
2023-04-18T00:15:14.000Z,11.2
2023-04-18T00:17:27.000Z,10.6
2023-04-18T00:18:33.000Z,10.3
2023-04-18T00:19:39.000Z,10.3
2023-04-18T00:20:45.000Z,9.9
2023-04-18T00:22:57.000Z,10.6
2023-04-18T00:24:03.000Z,10.9
2023-04-18T00:25:09.000Z,10.6
2023-04-18T00:27:21.000Z,9.9
2023-04-18T00:28:26.000Z,10.3
2023-04-18T00:29:31.000Z,10.6
2023-04-18T00:30:38.000Z,10.6
2023-04-18T00:31:44.000Z,9.9
2023-04-18T00:32:50.000Z,10.6
2023-04-18T00:33:56.000Z,10.9
2023-04-18T00:35:02.000Z,10.6
2023-04-18T00:36:08.000Z,9.9
2023-04-18T00:37:14.000Z,10.9
2023-04-18T00:38:20.000Z,10.6
2023-04-18T00:39:26.000Z,10.6
2023-04-18T00:41:37.000Z,10.9
2023-04-18T00:42:42.000Z,10.9
2023-04-18T00:43:48.000Z,9.9
2023-04-18T00:44:55.000Z,10.6
2023-04-18T00:46:01.000Z,10.6
2023-04-18T00:47:07.000Z,10.6
2023-04-18T00:48:13.000Z,10.3
2023-04-18T00:49:19.000Z,10.9
2023-04-18T00:50:25.000Z,10.6
2023-04-18T00:51:31.000Z,10.6
2023-04-18T00:52:36.000Z,9.3
2023-04-18T00:53:41.000Z,10.3
2023-04-18T00:56:59.000Z,10.6
2023-04-18T00:58:05.000Z,9.9
2023-04-18T00:59:12.000Z,10.6
2023-04-18T01:00:18.000Z,9.9
2023-04-18T01:01:24.000Z,9.6
2023-04-18T01:02:30.000Z,9.9
2023-04-18T01:03:36.000Z,9.9
2023-04-18T01:04:42.000Z,9.9
2023-04-18T01:05:48.000Z,9.9
2023-04-18T01:06:54.000Z,10.6
2023-04-18T01:07:59.000Z,10.6
2023-04-18T01:09:04.000Z,10.3
2023-04-18T01:10:10.000Z,9.9
2023-04-18T01:11:16.000Z,10.6
2023-04-18T01:12:23.000Z,10.3
2023-04-18T01:13:29.000Z,10.3
2023-04-18T01:14:35.000Z,9.9
2023-04-18T01:15:41.000Z,10.3
2023-04-18T01:17:53.000Z,9.9
2023-04-18T01:18:59.000Z,11.2
2023-04-18T01:20:05.000Z,9.6
2023-04-18T01:21:11.000Z,9.9
2023-04-18T01:22:17.000Z,10.6
2023-04-18T01:23:22.000Z,10.3
2023-04-18T01:24:28.000Z,9.9
2023-04-18T01:25:34.000Z,10.6
2023-04-18T01:26:41.000Z,10.6
2023-04-18T01:28:53.000Z,10.3
2023-04-18T01:29:59.000Z,10.6
2023-04-18T01:31:05.000Z,10.3
2023-04-18T01:32:11.000Z,9.6
2023-04-18T01:33:17.000Z,9.6
2023-04-18T01:34:23.000Z,9.9
2023-04-18T01:35:29.000Z,9.9
2023-04-18T01:36:35.000Z,10.3
2023-04-18T01:37:40.000Z,10.6
2023-04-18T01:38:46.000Z,11.2
2023-04-18T01:39:52.000Z,9.6
2023-04-18T01:40:57.000Z,10.3
2023-04-18T01:42:03.000Z,10.3
2023-04-18T01:43:09.000Z,10.6
2023-04-18T01:44:15.000Z,9.6
2023-04-18T01:45:21.000Z,10.3
2023-04-18T01:46:27.000Z,9.9
2023-04-18T01:47:33.000Z,9.6
2023-04-18T01:48:38.000Z,10.6
2023-04-18T01:49:44.000Z,10.3
2023-04-18T01:50:50.000Z,9.9
2023-04-18T01:51:56.000Z,9.9
2023-04-18T01:53:02.000Z,10.3
2023-04-18T01:54:07.000Z,10.6
2023-04-18T01:56:19.000Z,10.6
2023-04-18T01:57:25.000Z,9.9
2023-04-18T01:58:31.000Z,10.3
2023-04-18T01:59:37.000Z,9.3
2023-04-18T02:00:43.000Z,10.3
2023-04-18T02:01:49.000Z,9.6
2023-04-18T02:02:55.000Z,9.3
2023-04-18T02:04:01.000Z,10.3
2023-04-18T02:05:07.000Z,10.3
2023-04-18T02:06:13.000Z,9.3
2023-04-18T02:07:19.000Z,9.6
2023-04-18T02:08:25.000Z,9.9
2023-04-18T02:09:31.000Z,9.6
2023-04-18T02:10:37.000Z,10.3
2023-04-18T02:11:43.000Z,9.3
2023-04-18T02:12:49.000Z,10.6
2023-04-18T02:13:55.000Z,10.6
2023-04-18T02:15:01.000Z,9.6
2023-04-18T02:16:07.000Z,9.3
2023-04-18T02:17:13.000Z,9.6
2023-04-18T02:18:19.000Z,10.6
2023-04-18T02:19:25.000Z,9.9
2023-04-18T02:20:31.000Z,9.9
2023-04-18T02:21:38.000Z,9.9
2023-04-18T02:23:50.000Z,9.3
2023-04-18T02:24:55.000Z,10.9
2023-04-18T02:26:01.000Z,10.6
2023-04-18T02:27:07.000Z,9.9
2023-04-18T02:28:13.000Z,9.3
2023-04-18T02:29:19.000Z,9.6
2023-04-18T02:30:25.000Z,9.6
2023-04-18T02:31:31.000Z,9.9
2023-04-18T02:32:37.000Z,9.6
2023-04-18T02:33:43.000Z,9.9
2023-04-18T02:34:49.000Z,10.3
2023-04-18T02:35:55.000Z,9.3
2023-04-18T02:38:08.000Z,9.6
2023-04-18T02:39:14.000Z,9.9
2023-04-18T02:40:19.000Z,9.9
2023-04-18T02:41:25.000Z,9.6
2023-04-18T02:42:31.000Z,9.3
2023-04-18T02:43:37.000Z,9.3
2023-04-18T02:44:43.000Z,9.9
2023-04-18T02:45:49.000Z,9.6
2023-04-18T02:46:55.000Z,9.3
2023-04-18T02:48:01.000Z,9.6
2023-04-18T02:49:08.000Z,10.6
2023-04-18T02:50:14.000Z,9.6
2023-04-18T02:51:20.000Z,9.9
2023-04-18T02:52:26.000Z,9.6
2023-04-18T02:53:32.000Z,9.3
2023-04-18T02:54:37.000Z,9.6
2023-04-18T02:55:43.000Z,9.9
2023-04-18T02:56:49.000Z,9.9
2023-04-18T02:57:55.000Z,9.6
2023-04-18T02:59:01.000Z,9.9
2023-04-18T03:00:07.000Z,9.3
2023-04-18T03:01:13.000Z,9.9
2023-04-18T03:02:19.000Z,9.3
2023-04-18T03:04:32.000Z,9
2023-04-18T03:05:38.000Z,9.6
2023-04-18T03:07:50.000Z,10.3
2023-04-18T03:08:56.000Z,10.3
2023-04-18T03:10:01.000Z,9.9
2023-04-18T03:11:07.000Z,9.3
2023-04-18T03:12:13.000Z,9.9
2023-04-18T03:13:19.000Z,9.6
2023-04-18T03:14:25.000Z,10.3
2023-04-18T03:15:32.000Z,9.3
2023-04-18T03:16:38.000Z,9.9
2023-04-18T03:17:44.000Z,9.3
2023-04-18T03:18:50.000Z,9.3
2023-04-18T03:19:56.000Z,9.3
2023-04-18T03:21:02.000Z,10.6
2023-04-18T03:22:08.000Z,9.9
2023-04-18T03:23:14.000Z,9
2023-04-18T03:24:19.000Z,9.6
2023-04-18T03:25:25.000Z,9
2023-04-18T03:26:31.000Z,9.6
2023-04-18T03:27:37.000Z,9.3
2023-04-18T03:28:43.000Z,9.9
2023-04-18T03:29:49.000Z,9.6
2023-04-18T03:30:56.000Z,10.6
2023-04-18T03:32:02.000Z,9.6
2023-04-18T03:33:08.000Z,9.9
2023-04-18T03:34:14.000Z,10.3
2023-04-18T03:35:20.000Z,9.6
2023-04-18T03:36:26.000Z,9.3
2023-04-18T03:37:32.000Z,9
2023-04-18T03:39:43.000Z,9.6
2023-04-18T03:40:49.000Z,9.3
2023-04-18T03:41:55.000Z,9.9
2023-04-18T03:43:01.000Z,9.6
2023-04-18T03:44:08.000Z,9.6
2023-04-18T03:45:14.000Z,9.9
2023-04-18T03:46:20.000Z,9.9
2023-04-18T03:47:26.000Z,10.3
2023-04-18T03:48:32.000Z,9.9
2023-04-18T03:49:38.000Z,9.9
2023-04-18T03:52:56.000Z,9.9
2023-04-18T03:55:08.000Z,9.6
2023-04-18T03:56:13.000Z,9.6
2023-04-18T03:57:19.000Z,9.3
2023-04-18T03:58:25.000Z,9
2023-04-18T03:59:31.000Z,9
2023-04-18T04:02:49.000Z,9.6
2023-04-18T04:03:55.000Z,9.6
2023-04-18T04:05:01.000Z,9.6
2023-04-18T04:06:07.000Z,9.6
2023-04-18T04:07:13.000Z,9.6
2023-04-18T04:08:19.000Z,9.3
2023-04-18T04:09:25.000Z,10.9
2023-04-18T04:10:30.000Z,9.9
2023-04-18T04:11:35.000Z,9.9
2023-04-18T04:12:42.000Z,9.9
2023-04-18T04:14:54.000Z,9.6
2023-04-18T04:16:00.000Z,9.3
2023-04-18T04:17:06.000Z,9.3
2023-04-18T04:18:12.000Z,9.6
2023-04-18T04:19:18.000Z,9.9
2023-04-18T04:20:24.000Z,9
2023-04-18T04:21:30.000Z,9.6
2023-04-18T04:22:36.000Z,9.3
2023-04-18T04:23:42.000Z,10.6
2023-04-18T04:24:48.000Z,9.9
2023-04-18T04:25:53.000Z,9.9
2023-04-18T04:27:00.000Z,9.9
2023-04-18T04:28:06.000Z,9.3
2023-04-18T04:29:12.000Z,9.3
2023-04-18T04:30:18.000Z,9.6
2023-04-18T04:31:24.000Z,10.3
2023-04-18T04:32:30.000Z,9.9
2023-04-18T04:33:36.000Z,9.3
2023-04-18T04:35:47.000Z,9.3
2023-04-18T04:36:52.000Z,9.3
2023-04-18T04:37:58.000Z,9.9
2023-04-18T04:39:03.000Z,9
2023-04-18T04:40:09.000Z,9.9
2023-04-18T04:41:15.000Z,9.9
2023-04-18T04:43:27.000Z,9.6
2023-04-18T04:44:33.000Z,8.7
2023-04-18T04:46:45.000Z,9.6
2023-04-18T04:47:51.000Z,9.3
2023-04-18T04:48:57.000Z,9.3
2023-04-18T04:50:03.000Z,9.6
2023-04-18T04:51:09.000Z,9.6
2023-04-18T04:52:15.000Z,9.6
2023-04-18T04:54:27.000Z,9
2023-04-18T04:55:33.000Z,9
2023-04-18T04:57:44.000Z,9.3
2023-04-18T04:59:55.000Z,9.6
2023-04-18T05:01:00.000Z,9
2023-04-18T05:02:06.000Z,9.6
2023-04-18T05:03:11.000Z,8.7
2023-04-18T05:04:17.000Z,9.3
2023-04-18T05:05:23.000Z,9.6
2023-04-18T05:06:29.000Z,9.6
2023-04-18T05:07:36.000Z,9.9
2023-04-18T05:09:48.000Z,9
2023-04-18T05:10:54.000Z,8.7
2023-04-18T05:12:00.000Z,9.3
2023-04-18T05:13:06.000Z,9.9
2023-04-18T05:14:12.000Z,9.6
2023-04-18T05:15:18.000Z,9.3
2023-04-18T05:16:24.000Z,9
2023-04-18T05:19:41.000Z,9.9
2023-04-18T05:20:47.000Z,9.6
2023-04-18T05:23:00.000Z,9.3
2023-04-18T05:24:06.000Z,9.3
2023-04-18T05:25:12.000Z,9.3
2023-04-18T05:26:18.000Z,9.6
2023-04-18T05:27:24.000Z,9.3
2023-04-18T05:28:30.000Z,9.6
2023-04-18T05:30:41.000Z,8.7
2023-04-18T05:31:46.000Z,9
2023-04-18T05:32:52.000Z,9.9
2023-04-18T05:33:58.000Z,10.6
2023-04-18T05:35:04.000Z,9.3
2023-04-18T05:36:10.000Z,9.9
2023-04-18T05:37:17.000Z,9.3
2023-04-18T05:38:23.000Z,9.3
2023-04-18T05:40:35.000Z,8.7
2023-04-18T05:41:41.000Z,9
2023-04-18T05:42:47.000Z,9.9
2023-04-18T05:43:53.000Z,9.6
2023-04-18T05:44:59.000Z,9
2023-04-18T05:46:04.000Z,9.3
2023-04-18T05:47:10.000Z,9.6
2023-04-18T05:48:16.000Z,9
2023-04-18T05:49:22.000Z,9
2023-04-18T05:50:29.000Z,9
2023-04-18T05:51:35.000Z,9.9
2023-04-18T05:52:41.000Z,9.9
2023-04-18T05:53:46.000Z,9.9
2023-04-18T05:54:51.000Z,9.3
2023-04-18T05:55:57.000Z,11.2
2023-04-18T05:57:03.000Z,9
2023-04-18T05:58:09.000Z,9.6
2023-04-18T05:59:15.000Z,9.9
2023-04-18T06:00:21.000Z,9.9
2023-04-18T06:01:27.000Z,9
2023-04-18T06:02:34.000Z,9.6
2023-04-18T06:03:40.000Z,9
2023-04-18T06:04:46.000Z,9.3
2023-04-18T06:05:51.000Z,8.3
2023-04-18T06:06:57.000Z,9.3
2023-04-18T06:08:02.000Z,9
2023-04-18T06:11:20.000Z,8.7
2023-04-18T06:13:32.000Z,9.3
2023-04-18T06:14:38.000Z,9
2023-04-18T06:15:44.000Z,9.6
2023-04-18T06:16:51.000Z,9
2023-04-18T06:17:57.000Z,9
2023-04-18T06:19:03.000Z,9.9
2023-04-18T06:20:09.000Z,9
2023-04-18T06:21:14.000Z,9.6
2023-04-18T06:22:19.000Z,9.3
2023-04-18T06:25:37.000Z,8.7
2023-04-18T06:26:43.000Z,9.3
2023-04-18T06:27:49.000Z,9.6
2023-04-18T06:28:55.000Z,9.6
2023-04-18T06:31:08.000Z,9.3
2023-04-18T06:32:14.000Z,9.6
2023-04-18T06:33:20.000Z,9.3
2023-04-18T06:34:26.000Z,9
2023-04-18T06:36:38.000Z,9.3
2023-04-18T06:37:44.000Z,9.3
2023-04-18T06:38:49.000Z,9
2023-04-18T06:39:54.000Z,9.3
2023-04-18T06:41:00.000Z,9
2023-04-18T06:43:12.000Z,9
2023-04-18T06:44:19.000Z,8.7
2023-04-18T06:45:25.000Z,9
2023-04-18T06:46:31.000Z,10.3
2023-04-18T06:48:43.000Z,9.3
2023-04-18T06:49:49.000Z,9.3
2023-04-18T06:50:55.000Z,9.3
2023-04-18T06:52:01.000Z,9
2023-04-18T06:53:07.000Z,8
2023-04-18T06:54:13.000Z,9.3
2023-04-18T06:55:19.000Z,9
2023-04-18T06:58:37.000Z,9.6
2023-04-18T06:59:43.000Z,9.3
2023-04-18T07:00:49.000Z,8.7
2023-04-18T07:01:55.000Z,8.7
2023-04-18T07:04:07.000Z,9
2023-04-18T07:06:19.000Z,9.3
2023-04-18T07:07:25.000Z,9.6
2023-04-18T07:09:37.000Z,9
2023-04-18T07:10:42.000Z,9.3
2023-04-18T07:11:48.000Z,9.9
2023-04-18T07:12:55.000Z,9.3
2023-04-18T07:14:01.000Z,9.6
2023-04-18T07:16:13.000Z,9
2023-04-18T07:17:19.000Z,9
2023-04-18T07:18:25.000Z,9.6
2023-04-18T07:20:37.000Z,9.6
2023-04-18T07:21:43.000Z,9
2023-04-18T07:22:49.000Z,8.7
2023-04-18T07:23:55.000Z,9.3
2023-04-18T07:25:01.000Z,9.3
2023-04-18T07:26:06.000Z,8.7
2023-04-18T07:27:13.000Z,8
2023-04-18T07:28:19.000Z,9
2023-04-18T07:30:31.000Z,8.7
2023-04-18T07:31:37.000Z,8.7
2023-04-18T07:32:43.000Z,8.7
2023-04-18T07:34:55.000Z,8.7
2023-04-18T07:36:01.000Z,9.6
2023-04-18T07:37:07.000Z,8.7
2023-04-18T07:38:13.000Z,9.6
2023-04-18T07:39:19.000Z,9.6
2023-04-18T07:40:24.000Z,8.7
2023-04-18T07:41:31.000Z,8.7
2023-04-18T07:42:37.000Z,9
2023-04-18T07:43:43.000Z,9.6
2023-04-18T07:44:49.000Z,9
2023-04-18T07:45:55.000Z,9
2023-04-18T07:47:01.000Z,8.7
2023-04-18T07:48:07.000Z,9
2023-04-18T07:49:13.000Z,9.3
2023-04-18T07:50:19.000Z,8.7
2023-04-18T07:51:25.000Z,8.7
2023-04-18T07:52:31.000Z,9.3
2023-04-18T07:53:36.000Z,9.3
2023-04-18T07:54:42.000Z,8.7
2023-04-18T07:55:48.000Z,9.6
2023-04-18T07:56:54.000Z,9
2023-04-18T07:59:06.000Z,8.3
2023-04-18T08:00:12.000Z,9.3
2023-04-18T08:01:18.000Z,9
2023-04-18T08:02:24.000Z,9
2023-04-18T08:05:42.000Z,9
2023-04-18T08:06:48.000Z,9
2023-04-18T08:07:54.000Z,9
2023-04-18T08:09:00.000Z,9.3
2023-04-18T08:10:05.000Z,8.7
2023-04-18T08:11:11.000Z,9.6
2023-04-18T08:12:17.000Z,9
2023-04-18T08:13:23.000Z,9.3
2023-04-18T08:14:29.000Z,9
2023-04-18T08:15:35.000Z,9
2023-04-18T08:16:41.000Z,9.9
2023-04-18T08:17:47.000Z,9.3
2023-04-18T08:18:53.000Z,8.7
2023-04-18T08:19:59.000Z,9
2023-04-18T08:22:11.000Z,8.7
2023-04-18T08:23:17.000Z,9.3
2023-04-18T08:25:29.000Z,9.3
2023-04-18T08:27:41.000Z,9.3
2023-04-18T08:28:47.000Z,9
2023-04-18T08:29:53.000Z,9
2023-04-18T08:30:59.000Z,9
2023-04-18T08:32:05.000Z,8.7
2023-04-18T08:33:11.000Z,9.3
2023-04-18T08:34:17.000Z,9.6
2023-04-18T08:35:23.000Z,8.7
2023-04-18T08:37:36.000Z,9
2023-04-18T08:38:42.000Z,9.3
2023-04-18T08:39:47.000Z,9
2023-04-18T08:40:53.000Z,9.3
2023-04-18T08:41:59.000Z,9
2023-04-18T08:43:05.000Z,9.6
2023-04-18T08:44:11.000Z,9
2023-04-18T08:45:17.000Z,8.7
2023-04-18T08:46:23.000Z,8.7
2023-04-18T08:48:35.000Z,8.7
2023-04-18T08:49:41.000Z,9
2023-04-18T08:51:54.000Z,8.7
2023-04-18T08:54:06.000Z,9.3
2023-04-18T08:55:11.000Z,9.3
2023-04-18T08:56:17.000Z,9.3
2023-04-18T08:57:23.000Z,9.3
2023-04-18T08:59:35.000Z,9.3
2023-04-18T09:01:47.000Z,9
2023-04-18T09:02:53.000Z,9
2023-04-18T09:03:59.000Z,9
2023-04-18T09:05:06.000Z,9
2023-04-18T09:06:12.000Z,8.7
2023-04-18T09:07:18.000Z,9.6
2023-04-18T09:08:24.000Z,8.3
2023-04-18T09:09:30.000Z,9
2023-04-18T09:10:35.000Z,9
2023-04-18T09:11:41.000Z,9.3
2023-04-18T09:12:47.000Z,9
2023-04-18T09:13:53.000Z,8.7
2023-04-18T09:16:04.000Z,9
2023-04-18T09:17:09.000Z,9.6
2023-04-18T09:18:15.000Z,9.3
2023-04-18T09:20:28.000Z,9.3
2023-04-18T09:21:34.000Z,9.3
2023-04-18T09:22:40.000Z,9.3
2023-04-18T09:25:58.000Z,9.3
2023-04-18T09:27:04.000Z,9
2023-04-18T09:28:10.000Z,9.6
2023-04-18T09:29:16.000Z,9
2023-04-18T09:30:22.000Z,9.3
2023-04-18T09:31:27.000Z,9.6
2023-04-18T09:32:34.000Z,9
2023-04-18T09:34:46.000Z,9.3
2023-04-18T09:35:52.000Z,9
2023-04-18T09:38:04.000Z,9
2023-04-18T09:39:10.000Z,9.6
2023-04-18T09:40:16.000Z,9.3
2023-04-18T09:41:22.000Z,9
2023-04-18T09:43:34.000Z,8.7
2023-04-18T09:44:40.000Z,9.6
2023-04-18T09:45:45.000Z,9
2023-04-18T09:46:52.000Z,9.3
2023-04-18T09:47:58.000Z,9.6
2023-04-18T09:49:04.000Z,9
2023-04-18T09:50:10.000Z,9.6
2023-04-18T09:51:16.000Z,9
2023-04-18T09:52:22.000Z,9.3
2023-04-18T09:53:28.000Z,9
2023-04-18T09:55:40.000Z,9
2023-04-18T09:56:46.000Z,9.6
2023-04-18T09:57:52.000Z,8.7
2023-04-18T09:58:58.000Z,8.3
2023-04-18T10:00:05.000Z,9.3
2023-04-18T10:02:16.000Z,9.3
2023-04-18T10:04:28.000Z,8.7
2023-04-18T10:05:34.000Z,9.6
2023-04-18T10:06:40.000Z,9.3
2023-04-18T10:08:52.000Z,9
2023-04-18T10:09:58.000Z,8.7
2023-04-18T10:11:04.000Z,8.3
2023-04-18T10:13:16.000Z,8.7
2023-04-18T10:14:22.000Z,9.6
2023-04-18T10:15:29.000Z,9
2023-04-18T10:16:34.000Z,9
2023-04-18T10:17:40.000Z,9.3
2023-04-18T10:18:46.000Z,9.6
2023-04-18T10:19:52.000Z,8.7
2023-04-18T10:20:58.000Z,9.3
2023-04-18T10:22:04.000Z,8.7
2023-04-18T10:24:16.000Z,9
2023-04-18T10:25:22.000Z,8.7
2023-04-18T10:28:41.000Z,9.3
2023-04-18T10:29:47.000Z,9.3
2023-04-18T10:30:52.000Z,9.3
2023-04-18T10:31:58.000Z,9.9
2023-04-18T10:33:04.000Z,9.3
2023-04-18T10:34:10.000Z,9
2023-04-18T10:35:16.000Z,9.3
2023-04-18T10:36:22.000Z,9
2023-04-18T10:38:34.000Z,9
2023-04-18T10:39:40.000Z,9
2023-04-18T10:40:46.000Z,9.3
2023-04-18T10:41:52.000Z,9.6
2023-04-18T10:42:59.000Z,8.7
2023-04-18T10:44:05.000Z,9
2023-04-18T10:45:10.000Z,9.3
2023-04-18T10:46:16.000Z,9.3
2023-04-18T10:47:22.000Z,9.3
2023-04-18T10:48:28.000Z,8.7
2023-04-18T10:50:40.000Z,9.3
2023-04-18T10:51:46.000Z,9.6
2023-04-18T10:53:58.000Z,9.3
2023-04-18T10:55:04.000Z,9.9
2023-04-18T10:56:11.000Z,9.3
2023-04-18T10:57:17.000Z,9.3
2023-04-18T10:58:23.000Z,9.6
2023-04-18T10:59:28.000Z,8.7
2023-04-18T11:00:34.000Z,9.3
2023-04-18T11:01:40.000Z,9
2023-04-18T11:02:46.000Z,9.3
2023-04-18T11:03:52.000Z,9
2023-04-18T11:04:58.000Z,9.6
2023-04-18T11:06:04.000Z,9.3
2023-04-18T11:08:16.000Z,9
2023-04-18T11:09:22.000Z,9.6
2023-04-18T11:12:41.000Z,9
2023-04-18T11:13:46.000Z,9.3
2023-04-18T11:14:52.000Z,9
2023-04-18T11:15:58.000Z,9.3
2023-04-18T11:17:04.000Z,9.6
2023-04-18T11:18:10.000Z,9
2023-04-18T11:19:16.000Z,9.9
2023-04-18T11:23:41.000Z,9
2023-04-18T11:24:47.000Z,9
2023-04-18T11:25:53.000Z,9
2023-04-18T11:26:59.000Z,9.3
2023-04-18T11:28:04.000Z,9.3
2023-04-18T11:29:10.000Z,9.6
2023-04-18T11:30:16.000Z,9.3
2023-04-18T11:31:22.000Z,9.3
2023-04-18T11:32:28.000Z,9.3
2023-04-18T11:33:34.000Z,9.9
2023-04-18T11:34:40.000Z,9
2023-04-18T11:36:52.000Z,9
2023-04-18T11:39:05.000Z,9.6
2023-04-18T11:40:11.000Z,9
2023-04-18T11:41:17.000Z,10.9
2023-04-18T11:43:28.000Z,9
2023-04-18T11:44:34.000Z,9.3
2023-04-18T11:45:40.000Z,9.3
2023-04-18T11:46:46.000Z,9
2023-04-18T11:47:52.000Z,9
2023-04-18T11:48:58.000Z,9.3
2023-04-18T11:50:04.000Z,9
2023-04-18T11:51:10.000Z,9.3
2023-04-18T11:52:17.000Z,10.6
2023-04-18T11:53:23.000Z,9.3
2023-04-18T11:54:29.000Z,9
2023-04-18T11:55:35.000Z,9.3
2023-04-18T11:56:41.000Z,9.9
2023-04-18T11:57:47.000Z,9.3
2023-04-18T11:58:52.000Z,9.3
2023-04-18T11:59:58.000Z,9.9
2023-04-18T12:01:04.000Z,9.3
2023-04-18T12:03:15.000Z,9.6
2023-04-18T12:04:21.000Z,9.3
2023-04-18T12:06:33.000Z,9.6
2023-04-18T12:07:39.000Z,9.3
2023-04-18T12:08:45.000Z,9.3
2023-04-18T12:09:51.000Z,9
2023-04-18T12:13:09.000Z,9.6
2023-04-18T12:16:28.000Z,9.6
2023-04-18T12:18:40.000Z,9.9
2023-04-18T12:19:45.000Z,9.3
2023-04-18T12:20:51.000Z,9.3
2023-04-18T12:21:57.000Z,10.3
2023-04-18T12:23:03.000Z,9.9
2023-04-18T12:24:09.000Z,9.6
2023-04-18T12:25:15.000Z,9.3
2023-04-18T12:26:21.000Z,9.6
2023-04-18T12:27:27.000Z,9.3
2023-04-18T12:28:33.000Z,9.9
2023-04-18T12:30:45.000Z,9
2023-04-18T12:31:52.000Z,9.9
2023-04-18T12:32:58.000Z,9.6
2023-04-18T12:34:03.000Z,9.3
2023-04-18T12:35:09.000Z,9
2023-04-18T12:36:15.000Z,9.6
2023-04-18T12:37:21.000Z,10.3
2023-04-18T12:38:27.000Z,9.6
2023-04-18T12:39:33.000Z,9.6
2023-04-18T12:41:45.000Z,9.9
2023-04-18T12:42:51.000Z,9.6
2023-04-18T12:43:57.000Z,9.6
2023-04-18T12:45:04.000Z,9.9
2023-04-18T12:46:10.000Z,9.3
2023-04-18T12:47:16.000Z,9.9
2023-04-18T12:48:21.000Z,9.6
2023-04-18T12:49:27.000Z,10.9
2023-04-18T12:50:33.000Z,10.6
2023-04-18T12:51:39.000Z,9.6
2023-04-18T12:52:45.000Z,9.6
2023-04-18T12:53:50.000Z,9.9
2023-04-18T12:56:01.000Z,9
2023-04-18T12:57:07.000Z,9.6
2023-04-18T12:58:13.000Z,9.9
2023-04-18T12:59:19.000Z,9.3
2023-04-18T13:00:25.000Z,9.6
2023-04-18T13:01:31.000Z,9.6
2023-04-18T13:02:37.000Z,9.9
2023-04-18T13:03:43.000Z,9.9
2023-04-18T13:07:01.000Z,9.9
2023-04-18T13:08:07.000Z,10.6
2023-04-18T13:09:12.000Z,9.6
2023-04-18T13:10:19.000Z,9.6
2023-04-18T13:12:31.000Z,9.9
2023-04-18T13:13:37.000Z,10.3
2023-04-18T13:15:49.000Z,9.9
2023-04-18T13:16:55.000Z,9.9
2023-04-18T13:18:01.000Z,9.6
2023-04-18T13:19:07.000Z,9.9
2023-04-18T13:22:25.000Z,9.9
2023-04-18T13:23:31.000Z,9.6
2023-04-18T13:24:38.000Z,9.9
2023-04-18T13:25:44.000Z,9.3
2023-04-18T13:26:50.000Z,10.9
2023-04-18T13:29:02.000Z,9.6
2023-04-18T13:30:07.000Z,10.6
2023-04-18T13:31:13.000Z,9.6
2023-04-18T13:33:25.000Z,9.6
2023-04-18T13:34:31.000Z,9.9
2023-04-18T13:35:37.000Z,9.6
2023-04-18T13:36:43.000Z,9.9
2023-04-18T13:38:56.000Z,9.6
2023-04-18T13:40:02.000Z,9.9
2023-04-18T13:41:08.000Z,9.9
2023-04-18T13:42:14.000Z,10.6
2023-04-18T13:43:20.000Z,9.9
2023-04-18T13:44:25.000Z,9.9
2023-04-18T13:45:31.000Z,10.6
2023-04-18T13:46:37.000Z,9.6
2023-04-18T13:47:43.000Z,9.3
2023-04-18T13:48:49.000Z,11.2
2023-04-18T13:49:55.000Z,9.9
2023-04-18T13:51:01.000Z,10.3
2023-04-18T13:52:07.000Z,9.6
2023-04-18T13:53:14.000Z,9.6
2023-04-18T13:54:20.000Z,9.9
2023-04-18T13:57:38.000Z,9.9
2023-04-18T13:58:44.000Z,9.9
2023-04-18T13:59:50.000Z,9.9
2023-04-18T14:00:56.000Z,9.9
2023-04-18T14:02:02.000Z,10.3
2023-04-18T14:04:13.000Z,9.9
2023-04-18T14:05:20.000Z,10.6
2023-04-18T14:06:26.000Z,10.3
2023-04-18T14:07:32.000Z,9.9
2023-04-18T14:08:38.000Z,9.9
2023-04-18T14:09:44.000Z,9.9
2023-04-18T14:10:50.000Z,9.9
2023-04-18T14:11:56.000Z,9.3
2023-04-18T14:13:02.000Z,9.9
2023-04-18T14:15:14.000Z,11.2
2023-04-18T14:16:20.000Z,10.3
2023-04-18T14:17:25.000Z,9.9
2023-04-18T14:18:31.000Z,10.3
2023-04-18T14:19:38.000Z,9.9
2023-04-18T14:20:44.000Z,10.6
2023-04-18T14:21:50.000Z,10.6
2023-04-18T14:25:08.000Z,10.3
2023-04-18T14:26:14.000Z,10.9
2023-04-18T14:27:20.000Z,9.6
2023-04-18T14:28:26.000Z,10.9
2023-04-18T14:29:32.000Z,9.9
2023-04-18T14:30:38.000Z,9.9
2023-04-18T14:31:44.000Z,9.6
2023-04-18T14:32:50.000Z,10.6
2023-04-18T14:35:03.000Z,10.6
2023-04-18T14:36:09.000Z,9.6
2023-04-18T14:38:20.000Z,10.6
2023-04-18T14:40:32.000Z,10.6
2023-04-18T14:41:38.000Z,10.9
2023-04-18T14:42:44.000Z,10.3
2023-04-18T14:43:50.000Z,10.6
2023-04-18T14:46:02.000Z,10.6
2023-04-18T14:47:08.000Z,10.9
2023-04-18T14:49:21.000Z,9.9
2023-04-18T14:50:27.000Z,11.6
2023-04-18T14:51:32.000Z,10.6
2023-04-18T14:52:38.000Z,10.3
2023-04-18T14:53:44.000Z,10.3
2023-04-18T14:54:50.000Z,9.9
2023-04-18T14:55:56.000Z,11.6
2023-04-18T14:57:02.000Z,10.9
2023-04-18T14:58:08.000Z,10.3
2023-04-18T14:59:14.000Z,10.9
2023-04-18T15:00:20.000Z,10.6
2023-04-18T15:01:26.000Z,10.9
2023-04-18T15:02:32.000Z,10.3
2023-04-18T15:03:38.000Z,9.9
2023-04-18T15:04:45.000Z,10.9
2023-04-18T15:05:51.000Z,9.9
2023-04-18T15:06:56.000Z,10.9
2023-04-18T15:08:02.000Z,10.6
2023-04-18T15:09:07.000Z,10.3
2023-04-18T15:10:13.000Z,10.9
2023-04-18T15:12:24.000Z,10.3
2023-04-18T15:13:30.000Z,10.6
2023-04-18T15:14:36.000Z,10.3
2023-04-18T15:15:42.000Z,9.9
2023-04-18T15:16:48.000Z,10.3
2023-04-18T15:17:54.000Z,10.9
2023-04-18T15:19:01.000Z,10.9
2023-04-18T15:20:07.000Z,11.2
2023-04-18T15:23:25.000Z,10.9
2023-04-18T15:24:31.000Z,10.3
2023-04-18T15:25:36.000Z,10.9
2023-04-18T15:26:41.000Z,11.6
2023-04-18T15:27:47.000Z,11.2
2023-04-18T15:28:53.000Z,10.6
2023-04-18T15:29:59.000Z,10.3
2023-04-18T15:31:06.000Z,10.9
2023-04-18T15:32:12.000Z,10.9
2023-04-18T15:33:18.000Z,10.9
2023-04-18T15:34:24.000Z,10.6
2023-04-18T15:35:30.000Z,10.9
2023-04-18T15:36:36.000Z,10.6
2023-04-18T15:37:41.000Z,10.6
2023-04-18T15:38:47.000Z,10.3
2023-04-18T15:40:58.000Z,10.9
2023-04-18T15:42:04.000Z,9.6
2023-04-18T15:43:10.000Z,11.2
2023-04-18T15:46:29.000Z,11.2
2023-04-18T15:47:35.000Z,9.9
2023-04-18T15:49:47.000Z,10.9
2023-04-18T15:50:53.000Z,10.9
2023-04-18T15:51:59.000Z,10.6
2023-04-18T15:53:05.000Z,10.9
2023-04-18T15:54:10.000Z,10.9
2023-04-18T15:55:15.000Z,11.2
2023-04-18T15:57:28.000Z,9.9
2023-04-18T15:58:34.000Z,10.6
2023-04-18T15:59:40.000Z,10.6
2023-04-18T16:00:46.000Z,11.2
2023-04-18T16:01:52.000Z,9.9
2023-04-18T16:02:58.000Z,10.9
2023-04-18T16:04:04.000Z,10.6
2023-04-18T16:05:10.000Z,10.9
2023-04-18T16:06:16.000Z,11.9
2023-04-18T16:08:28.000Z,10.6
2023-04-18T16:09:33.000Z,11.2
2023-04-18T16:10:39.000Z,10.9
2023-04-18T16:11:45.000Z,10.9
2023-04-18T16:12:52.000Z,10.3
2023-04-18T16:15:04.000Z,10.9
2023-04-18T16:16:10.000Z,10.9
2023-04-18T16:22:46.000Z,11.2
2023-04-18T16:23:51.000Z,11.2
2023-04-18T16:24:57.000Z,10.9
2023-04-18T16:26:03.000Z,11.2
2023-04-18T16:27:09.000Z,10.9
2023-04-18T16:28:16.000Z,10.6
2023-04-18T16:29:22.000Z,11.2
2023-04-18T16:30:28.000Z,10.6
2023-04-18T16:31:34.000Z,11.2
2023-04-18T16:32:40.000Z,10.9
2023-04-18T16:33:46.000Z,11.9
2023-04-18T16:34:52.000Z,11.6
2023-04-18T16:35:58.000Z,9.9
2023-04-18T16:37:04.000Z,11.2
2023-04-18T16:38:09.000Z,10.6
2023-04-18T16:39:15.000Z,10.6
2023-04-18T16:42:33.000Z,11.2
2023-04-18T16:43:39.000Z,10.9
2023-04-18T16:45:51.000Z,11.2
2023-04-18T16:46:57.000Z,11.2
2023-04-18T16:49:09.000Z,10.9
2023-04-18T16:50:15.000Z,11.6
2023-04-18T16:52:27.000Z,11.9
2023-04-18T16:53:32.000Z,11.6
2023-04-18T16:54:39.000Z,11.2
2023-04-18T16:55:45.000Z,11.2
2023-04-18T16:56:51.000Z,12.2
2023-04-18T16:57:57.000Z,11.2
2023-04-18T16:59:03.000Z,10.9
2023-04-18T17:00:09.000Z,10.9
2023-04-18T17:01:15.000Z,11.2
2023-04-18T17:03:27.000Z,11.9
2023-04-18T17:04:33.000Z,10.6
2023-04-18T17:05:39.000Z,10.9
2023-04-18T17:07:51.000Z,10.6
2023-04-18T17:08:56.000Z,11.6
2023-04-18T17:10:03.000Z,11.2
2023-04-18T17:11:09.000Z,11.9
2023-04-18T17:12:15.000Z,10.6
2023-04-18T17:13:21.000Z,10.9
2023-04-18T17:14:27.000Z,10.9
2023-04-18T17:15:33.000Z,11.2
2023-04-18T17:16:39.000Z,10.6
2023-04-18T17:17:45.000Z,11.2
2023-04-18T17:19:57.000Z,10.9
2023-04-18T17:21:03.000Z,11.6
2023-04-18T17:22:10.000Z,11.6
2023-04-18T17:23:15.000Z,11.6
2023-04-18T17:24:21.000Z,10.6
2023-04-18T17:25:27.000Z,11.2
2023-04-18T17:26:33.000Z,10.9
2023-04-18T17:27:39.000Z,10.6
2023-04-18T17:28:45.000Z,11.6
2023-04-18T17:30:57.000Z,10.6
2023-04-18T17:33:09.000Z,10.9
2023-04-18T17:34:15.000Z,11.2
2023-04-18T17:35:21.000Z,10.9
2023-04-18T17:36:27.000Z,11.2
2023-04-18T17:37:34.000Z,11.2
2023-04-18T17:38:40.000Z,11.9
2023-04-18T17:39:45.000Z,10.9
2023-04-18T17:40:51.000Z,11.6
2023-04-18T17:41:57.000Z,9.9
2023-04-18T17:43:03.000Z,11.9
2023-04-18T17:44:09.000Z,11.2
2023-04-18T17:45:15.000Z,12.5
2023-04-18T17:47:27.000Z,10.6
2023-04-18T17:48:33.000Z,10.9
2023-04-18T17:49:39.000Z,11.2